sensor_id;sensor_type;location;lat;lon;timestamp;P1;durP1;ratioP1;P2;durP2;ratioP2
54125;SDS011;40360;52.992;6.796;2023-04-30T00:00:13;13.05;;;6.70;;
54125;SDS011;40360;52.992;6.796;2023-04-30T00:02:39;14.27;;;6.35;;
54125;SDS011;40360;52.992;6.796;2023-04-30T00:05:04;10.18;;;5.97;;
54125;SDS011;40360;52.992;6.796;2023-04-30T00:07:30;10.27;;;5.65;;
54125;SDS011;40360;52.992;6.796;2023-04-30T00:09:56;14.48;;;6.18;;
54125;SDS011;40360;52.992;6.796;2023-04-30T00:12:22;12.55;;;6.40;;
54125;SDS011;40360;52.992;6.796;2023-04-30T00:14:48;14.57;;;6.13;;
54125;SDS011;40360;52.992;6.796;2023-04-30T00:17:14;9.80;;;6.20;;
54125;SDS011;40360;52.992;6.796;2023-04-30T00:19:40;10.57;;;5.63;;
54125;SDS011;40360;52.992;6.796;2023-04-30T00:22:06;11.75;;;6.55;;
54125;SDS011;40360;52.992;6.796;2023-04-30T00:24:32;20.30;;;6.10;;
54125;SDS011;40360;52.992;6.796;2023-04-30T00:26:58;13.55;;;6.78;;
54125;SDS011;40360;52.992;6.796;2023-04-30T00:29:24;15.90;;;6.50;;
54125;SDS011;40360;52.992;6.796;2023-04-30T00:31:50;9.07;;;5.75;;
54125;SDS011;40360;52.992;6.796;2023-04-30T00:34:15;9.63;;;5.40;;
54125;SDS011;40360;52.992;6.796;2023-04-30T00:36:41;14.48;;;6.40;;
54125;SDS011;40360;52.992;6.796;2023-04-30T00:39:06;8.02;;;5.07;;
54125;SDS011;40360;52.992;6.796;2023-04-30T00:41:33;16.20;;;6.40;;
54125;SDS011;40360;52.992;6.796;2023-04-30T00:43:59;8.45;;;5.97;;
54125;SDS011;40360;52.992;6.796;2023-04-30T00:46:26;9.93;;;6.00;;
54125;SDS011;40360;52.992;6.796;2023-04-30T00:48:52;8.73;;;6.15;;
54125;SDS011;40360;52.992;6.796;2023-04-30T00:51:18;7.40;;;5.57;;
54125;SDS011;40360;52.992;6.796;2023-04-30T00:53:44;7.07;;;5.45;;
54125;SDS011;40360;52.992;6.796;2023-04-30T00:56:10;11.60;;;5.82;;
54125;SDS011;40360;52.992;6.796;2023-04-30T00:58:40;11.82;;;6.15;;
54125;SDS011;40360;52.992;6.796;2023-04-30T01:01:06;13.40;;;7.35;;
54125;SDS011;40360;52.992;6.796;2023-04-30T01:03:31;9.77;;;6.20;;
54125;SDS011;40360;52.992;6.796;2023-04-30T01:05:59;9.65;;;6.10;;
54125;SDS011;40360;52.992;6.796;2023-04-30T01:08:25;11.75;;;6.50;;
54125;SDS011;40360;52.992;6.796;2023-04-30T01:10:55;16.40;;;7.13;;
54125;SDS011;40360;52.992;6.796;2023-04-30T01:13:28;12.70;;;7.22;;
54125;SDS011;40360;52.992;6.796;2023-04-30T01:16:06;12.57;;;6.43;;
54125;SDS011;40360;52.992;6.796;2023-04-30T01:19:01;14.80;;;7.00;;
54125;SDS011;40360;52.992;6.796;2023-04-30T01:21:30;14.20;;;6.78;;
54125;SDS011;40360;52.992;6.796;2023-04-30T01:24:59;14.90;;;6.82;;
54125;SDS011;40360;52.992;6.796;2023-04-30T01:29:56;15.85;;;7.88;;
54125;SDS011;40360;52.992;6.796;2023-04-30T01:32:23;16.13;;;7.97;;
54125;SDS011;40360;52.992;6.796;2023-04-30T01:34:48;14.20;;;6.95;;
54125;SDS011;40360;52.992;6.796;2023-04-30T01:37:21;12.05;;;7.88;;
54125;SDS011;40360;52.992;6.796;2023-04-30T01:45:43;17.20;;;7.00;;
54125;SDS011;40360;52.992;6.796;2023-04-30T01:48:39;16.38;;;7.47;;
54125;SDS011;40360;52.992;6.796;2023-04-30T01:51:42;13.45;;;8.93;;
54125;SDS011;40360;52.992;6.796;2023-04-30T01:54:16;19.02;;;8.45;;
54125;SDS011;40360;52.992;6.796;2023-04-30T01:56:48;13.38;;;8.05;;
54125;SDS011;40360;52.992;6.796;2023-04-30T01:59:23;13.02;;;6.13;;
54125;SDS011;40360;52.992;6.796;2023-04-30T02:01:49;10.23;;;5.78;;
54125;SDS011;40360;52.992;6.796;2023-04-30T02:04:15;12.45;;;6.53;;
54125;SDS011;40360;52.992;6.796;2023-04-30T02:06:40;13.25;;;7.68;;
54125;SDS011;40360;52.992;6.796;2023-04-30T02:09:06;10.63;;;7.13;;
54125;SDS011;40360;52.992;6.796;2023-04-30T02:11:31;12.80;;;7.03;;
54125;SDS011;40360;52.992;6.796;2023-04-30T02:13:57;8.88;;;5.28;;
54125;SDS011;40360;52.992;6.796;2023-04-30T02:16:23;10.63;;;6.70;;
54125;SDS011;40360;52.992;6.796;2023-04-30T02:18:48;9.63;;;5.55;;
54125;SDS011;40360;52.992;6.796;2023-04-30T02:21:14;10.73;;;6.10;;
54125;SDS011;40360;52.992;6.796;2023-04-30T02:23:40;8.50;;;5.80;;
54125;SDS011;40360;52.992;6.796;2023-04-30T02:26:06;8.43;;;5.38;;
54125;SDS011;40360;52.992;6.796;2023-04-30T02:28:31;11.00;;;6.35;;
54125;SDS011;40360;52.992;6.796;2023-04-30T02:30:57;11.55;;;6.00;;
54125;SDS011;40360;52.992;6.796;2023-04-30T02:33:23;10.05;;;6.13;;
54125;SDS011;40360;52.992;6.796;2023-04-30T02:35:48;9.05;;;6.10;;
54125;SDS011;40360;52.992;6.796;2023-04-30T02:38:14;10.75;;;6.10;;
54125;SDS011;40360;52.992;6.796;2023-04-30T02:40:40;11.27;;;6.72;;
54125;SDS011;40360;52.992;6.796;2023-04-30T02:43:09;10.48;;;6.53;;
54125;SDS011;40360;52.992;6.796;2023-04-30T02:45:34;13.35;;;6.90;;
54125;SDS011;40360;52.992;6.796;2023-04-30T02:48:00;10.48;;;6.07;;
54125;SDS011;40360;52.992;6.796;2023-04-30T02:50:25;11.65;;;5.63;;
54125;SDS011;40360;52.992;6.796;2023-04-30T02:52:51;8.75;;;5.38;;
54125;SDS011;40360;52.992;6.796;2023-04-30T02:55:17;13.02;;;5.47;;
54125;SDS011;40360;52.992;6.796;2023-04-30T02:57:42;8.48;;;5.00;;
54125;SDS011;40360;52.992;6.796;2023-04-30T03:00:08;12.15;;;6.60;;
54125;SDS011;40360;52.992;6.796;2023-04-30T03:02:35;12.88;;;7.85;;
54125;SDS011;40360;52.992;6.796;2023-04-30T03:05:01;10.10;;;6.88;;
54125;SDS011;40360;52.992;6.796;2023-04-30T03:07:27;16.98;;;7.70;;
54125;SDS011;40360;52.992;6.796;2023-04-30T03:09:52;11.93;;;6.90;;
54125;SDS011;40360;52.992;6.796;2023-04-30T03:12:18;15.77;;;8.82;;
54125;SDS011;40360;52.992;6.796;2023-04-30T03:14:46;9.07;;;5.80;;
54125;SDS011;40360;52.992;6.796;2023-04-30T03:17:12;18.55;;;6.30;;
54125;SDS011;40360;52.992;6.796;2023-04-30T03:19:37;9.43;;;6.30;;
54125;SDS011;40360;52.992;6.796;2023-04-30T03:22:03;12.13;;;6.13;;
54125;SDS011;40360;52.992;6.796;2023-04-30T03:24:28;14.38;;;7.75;;
54125;SDS011;40360;52.992;6.796;2023-04-30T03:26:54;12.02;;;6.30;;
54125;SDS011;40360;52.992;6.796;2023-04-30T03:29:20;15.02;;;7.32;;
54125;SDS011;40360;52.992;6.796;2023-04-30T03:31:46;14.45;;;6.45;;
54125;SDS011;40360;52.992;6.796;2023-04-30T03:34:11;11.65;;;5.50;;
54125;SDS011;40360;52.992;6.796;2023-04-30T03:36:37;9.43;;;5.65;;
54125;SDS011;40360;52.992;6.796;2023-04-30T03:39:03;12.18;;;6.63;;
54125;SDS011;40360;52.992;6.796;2023-04-30T03:41:29;9.95;;;6.70;;
54125;SDS011;40360;52.992;6.796;2023-04-30T03:43:54;8.95;;;6.57;;
54125;SDS011;40360;52.992;6.796;2023-04-30T03:46:20;8.63;;;6.10;;
54125;SDS011;40360;52.992;6.796;2023-04-30T03:48:46;10.02;;;7.28;;
54125;SDS011;40360;52.992;6.796;2023-04-30T03:51:11;12.25;;;6.88;;
54125;SDS011;40360;52.992;6.796;2023-04-30T03:53:37;10.02;;;6.15;;
54125;SDS011;40360;52.992;6.796;2023-04-30T03:56:02;10.32;;;7.10;;
54125;SDS011;40360;52.992;6.796;2023-04-30T03:58:29;11.65;;;6.85;;
54125;SDS011;40360;52.992;6.796;2023-04-30T04:00:55;6.72;;;5.43;;
54125;SDS011;40360;52.992;6.796;2023-04-30T04:03:20;9.55;;;6.53;;
54125;SDS011;40360;52.992;6.796;2023-04-30T04:05:46;10.93;;;7.05;;
54125;SDS011;40360;52.992;6.796;2023-04-30T04:08:13;12.85;;;8.82;;
54125;SDS011;40360;52.992;6.796;2023-04-30T04:10:38;13.52;;;8.73;;
54125;SDS011;40360;52.992;6.796;2023-04-30T04:13:05;12.88;;;6.90;;
54125;SDS011;40360;52.992;6.796;2023-04-30T04:15:31;17.98;;;9.40;;
54125;SDS011;40360;52.992;6.796;2023-04-30T04:17:57;11.98;;;7.53;;
54125;SDS011;40360;52.992;6.796;2023-04-30T04:20:23;15.40;;;7.97;;
54125;SDS011;40360;52.992;6.796;2023-04-30T04:22:48;10.60;;;6.53;;
54125;SDS011;40360;52.992;6.796;2023-04-30T04:25:15;9.20;;;6.90;;
54125;SDS011;40360;52.992;6.796;2023-04-30T04:27:42;9.88;;;6.93;;
54125;SDS011;40360;52.992;6.796;2023-04-30T04:30:08;13.98;;;7.35;;
54125;SDS011;40360;52.992;6.796;2023-04-30T04:32:33;9.30;;;6.40;;
54125;SDS011;40360;52.992;6.796;2023-04-30T04:35:05;9.52;;;6.90;;
54125;SDS011;40360;52.992;6.796;2023-04-30T04:37:32;11.88;;;6.32;;
54125;SDS011;40360;52.992;6.796;2023-04-30T04:39:58;11.77;;;7.75;;
54125;SDS011;40360;52.992;6.796;2023-04-30T04:42:25;12.20;;;7.35;;
54125;SDS011;40360;52.992;6.796;2023-04-30T04:44:50;12.90;;;6.65;;
54125;SDS011;40360;52.992;6.796;2023-04-30T04:47:16;15.45;;;6.97;;
54125;SDS011;40360;52.992;6.796;2023-04-30T04:49:45;8.88;;;6.25;;
54125;SDS011;40360;52.992;6.796;2023-04-30T04:52:11;12.27;;;6.57;;
54125;SDS011;40360;52.992;6.796;2023-04-30T04:54:36;12.00;;;7.10;;
54125;SDS011;40360;52.992;6.796;2023-04-30T04:57:02;15.82;;;8.27;;
54125;SDS011;40360;52.992;6.796;2023-04-30T04:59:28;10.70;;;7.57;;
54125;SDS011;40360;52.992;6.796;2023-04-30T05:01:53;13.65;;;7.80;;
54125;SDS011;40360;52.992;6.796;2023-04-30T05:04:20;20.52;;;12.13;;
54125;SDS011;40360;52.992;6.796;2023-04-30T05:06:46;10.63;;;8.07;;
54125;SDS011;40360;52.992;6.796;2023-04-30T05:09:12;14.52;;;8.00;;
54125;SDS011;40360;52.992;6.796;2023-04-30T05:11:37;13.50;;;9.50;;
54125;SDS011;40360;52.992;6.796;2023-04-30T05:14:05;14.05;;;9.27;;
54125;SDS011;40360;52.992;6.796;2023-04-30T05:16:31;15.05;;;9.35;;
54125;SDS011;40360;52.992;6.796;2023-04-30T05:18:56;14.60;;;9.80;;
54125;SDS011;40360;52.992;6.796;2023-04-30T05:21:22;26.52;;;11.10;;
54125;SDS011;40360;52.992;6.796;2023-04-30T05:23:49;17.42;;;10.23;;
54125;SDS011;40360;52.992;6.796;2023-04-30T05:26:15;16.75;;;9.77;;
54125;SDS011;40360;52.992;6.796;2023-04-30T05:28:41;27.40;;;10.85;;
54125;SDS011;40360;52.992;6.796;2023-04-30T05:31:06;16.25;;;10.43;;
54125;SDS011;40360;52.992;6.796;2023-04-30T05:33:32;18.45;;;9.90;;
54125;SDS011;40360;52.992;6.796;2023-04-30T05:35:58;15.82;;;10.27;;
54125;SDS011;40360;52.992;6.796;2023-04-30T05:38:24;15.43;;;9.13;;
54125;SDS011;40360;52.992;6.796;2023-04-30T05:40:49;22.20;;;8.57;;
54125;SDS011;40360;52.992;6.796;2023-04-30T06:01:19;16.92;;;8.93;;
54125;SDS011;40360;52.992;6.796;2023-04-30T06:03:45;12.88;;;8.60;;
54125;SDS011;40360;52.992;6.796;2023-04-30T06:06:11;17.75;;;8.23;;
54125;SDS011;40360;52.992;6.796;2023-04-30T06:08:36;15.70;;;8.30;;
54125;SDS011;40360;52.992;6.796;2023-04-30T06:11:02;10.73;;;7.63;;
54125;SDS011;40360;52.992;6.796;2023-04-30T06:13:30;15.00;;;9.18;;
54125;SDS011;40360;52.992;6.796;2023-04-30T06:15:56;15.85;;;8.82;;
54125;SDS011;40360;52.992;6.796;2023-04-30T06:18:22;13.85;;;7.15;;
54125;SDS011;40360;52.992;6.796;2023-04-30T06:20:48;21.33;;;7.75;;
54125;SDS011;40360;52.992;6.796;2023-04-30T06:23:13;13.52;;;7.03;;
54125;SDS011;40360;52.992;6.796;2023-04-30T06:25:39;10.43;;;6.32;;
54125;SDS011;40360;52.992;6.796;2023-04-30T06:28:04;11.85;;;6.28;;
54125;SDS011;40360;52.992;6.796;2023-04-30T06:30:32;13.32;;;6.43;;
54125;SDS011;40360;52.992;6.796;2023-04-30T06:32:58;17.35;;;6.53;;
54125;SDS011;40360;52.992;6.796;2023-04-30T06:35:23;16.00;;;5.22;;
54125;SDS011;40360;52.992;6.796;2023-04-30T06:37:49;12.23;;;5.95;;
54125;SDS011;40360;52.992;6.796;2023-04-30T06:40:15;14.35;;;6.07;;
54125;SDS011;40360;52.992;6.796;2023-04-30T06:42:40;10.10;;;5.32;;
54125;SDS011;40360;52.992;6.796;2023-04-30T06:45:06;13.50;;;5.53;;
54125;SDS011;40360;52.992;6.796;2023-04-30T06:47:32;14.85;;;6.10;;
54125;SDS011;40360;52.992;6.796;2023-04-30T06:50:02;18.00;;;7.22;;
54125;SDS011;40360;52.992;6.796;2023-04-30T06:52:28;10.18;;;5.10;;
54125;SDS011;40360;52.992;6.796;2023-04-30T06:54:54;12.82;;;5.47;;
54125;SDS011;40360;52.992;6.796;2023-04-30T06:57:20;15.00;;;5.47;;
54125;SDS011;40360;52.992;6.796;2023-04-30T06:59:45;15.20;;;4.65;;
54125;SDS011;40360;52.992;6.796;2023-04-30T07:02:11;11.18;;;4.22;;
54125;SDS011;40360;52.992;6.796;2023-04-30T07:04:37;11.63;;;5.75;;
54125;SDS011;40360;52.992;6.796;2023-04-30T07:07:02;13.93;;;4.65;;
54125;SDS011;40360;52.992;6.796;2023-04-30T07:09:28;12.55;;;4.13;;
54125;SDS011;40360;52.992;6.796;2023-04-30T07:11:54;13.95;;;3.85;;
54125;SDS011;40360;52.992;6.796;2023-04-30T07:14:21;12.23;;;4.97;;
54125;SDS011;40360;52.992;6.796;2023-04-30T07:16:48;10.30;;;3.67;;
54125;SDS011;40360;52.992;6.796;2023-04-30T07:19:14;11.70;;;4.68;;
54125;SDS011;40360;52.992;6.796;2023-04-30T07:21:40;10.73;;;4.72;;
54125;SDS011;40360;52.992;6.796;2023-04-30T07:24:05;9.23;;;4.13;;
54125;SDS011;40360;52.992;6.796;2023-04-30T07:26:31;12.25;;;4.75;;
54125;SDS011;40360;52.992;6.796;2023-04-30T07:28:57;11.00;;;4.75;;
54125;SDS011;40360;52.992;6.796;2023-04-30T07:31:23;9.73;;;3.90;;
54125;SDS011;40360;52.992;6.796;2023-04-30T07:33:50;13.25;;;4.57;;
54125;SDS011;40360;52.992;6.796;2023-04-30T07:36:16;9.02;;;3.97;;
54125;SDS011;40360;52.992;6.796;2023-04-30T07:38:42;9.82;;;4.03;;
54125;SDS011;40360;52.992;6.796;2023-04-30T07:41:07;13.65;;;4.45;;
54125;SDS011;40360;52.992;6.796;2023-04-30T07:43:36;10.50;;;3.65;;
54125;SDS011;40360;52.992;6.796;2023-04-30T07:46:01;12.73;;;5.15;;
54125;SDS011;40360;52.992;6.796;2023-04-30T07:48:28;13.45;;;3.42;;
54125;SDS011;40360;52.992;6.796;2023-04-30T07:50:54;10.98;;;3.63;;
54125;SDS011;40360;52.992;6.796;2023-04-30T07:53:20;11.25;;;3.58;;
54125;SDS011;40360;52.992;6.796;2023-04-30T07:55:47;12.27;;;4.60;;
54125;SDS011;40360;52.992;6.796;2023-04-30T07:58:12;12.05;;;3.90;;
54125;SDS011;40360;52.992;6.796;2023-04-30T08:00:38;12.07;;;3.63;;
54125;SDS011;40360;52.992;6.796;2023-04-30T08:03:03;9.00;;;3.55;;
54125;SDS011;40360;52.992;6.796;2023-04-30T08:05:29;9.85;;;3.53;;
54125;SDS011;40360;52.992;6.796;2023-04-30T08:07:55;10.98;;;4.88;;
54125;SDS011;40360;52.992;6.796;2023-04-30T08:10:21;14.25;;;4.63;;
54125;SDS011;40360;52.992;6.796;2023-04-30T08:12:46;9.57;;;3.90;;
54125;SDS011;40360;52.992;6.796;2023-04-30T08:15:12;11.88;;;4.10;;
54125;SDS011;40360;52.992;6.796;2023-04-30T08:17:38;12.10;;;3.97;;
54125;SDS011;40360;52.992;6.796;2023-04-30T08:20:03;9.15;;;4.13;;
54125;SDS011;40360;52.992;6.796;2023-04-30T08:22:30;11.15;;;4.25;;
54125;SDS011;40360;52.992;6.796;2023-04-30T08:24:56;7.63;;;4.00;;
54125;SDS011;40360;52.992;6.796;2023-04-30T08:27:22;12.50;;;4.47;;
54125;SDS011;40360;52.992;6.796;2023-04-30T08:29:48;8.77;;;3.53;;
54125;SDS011;40360;52.992;6.796;2023-04-30T08:32:13;10.82;;;3.75;;
54125;SDS011;40360;52.992;6.796;2023-04-30T08:34:39;12.77;;;4.10;;
54125;SDS011;40360;52.992;6.796;2023-04-30T08:37:06;11.00;;;4.00;;
54125;SDS011;40360;52.992;6.796;2023-04-30T08:39:31;9.63;;;3.60;;
54125;SDS011;40360;52.992;6.796;2023-04-30T08:41:59;10.02;;;4.07;;
54125;SDS011;40360;52.992;6.796;2023-04-30T08:44:27;8.63;;;3.40;;
54125;SDS011;40360;52.992;6.796;2023-04-30T08:46:54;8.05;;;3.95;;
54125;SDS011;40360;52.992;6.796;2023-04-30T08:49:22;6.70;;;3.47;;
54125;SDS011;40360;52.992;6.796;2023-04-30T08:51:48;12.20;;;4.25;;
54125;SDS011;40360;52.992;6.796;2023-04-30T08:54:14;13.50;;;3.88;;
54125;SDS011;40360;52.992;6.796;2023-04-30T08:56:42;9.02;;;3.70;;
54125;SDS011;40360;52.992;6.796;2023-04-30T08:59:09;10.70;;;4.10;;
54125;SDS011;40360;52.992;6.796;2023-04-30T09:01:36;13.30;;;4.50;;
54125;SDS011;40360;52.992;6.796;2023-04-30T09:04:02;9.20;;;3.70;;
54125;SDS011;40360;52.992;6.796;2023-04-30T09:06:28;15.13;;;3.92;;
54125;SDS011;40360;52.992;6.796;2023-04-30T09:08:55;11.35;;;3.88;;
54125;SDS011;40360;52.992;6.796;2023-04-30T09:11:25;8.57;;;4.32;;
54125;SDS011;40360;52.992;6.796;2023-04-30T09:13:55;9.25;;;3.58;;
54125;SDS011;40360;52.992;6.796;2023-04-30T09:16:22;8.15;;;3.88;;
54125;SDS011;40360;52.992;6.796;2023-04-30T09:18:49;11.98;;;3.75;;
54125;SDS011;40360;52.992;6.796;2023-04-30T09:21:15;8.05;;;3.55;;
54125;SDS011;40360;52.992;6.796;2023-04-30T09:24:00;9.48;;;3.03;;
54125;SDS011;40360;52.992;6.796;2023-04-30T09:29:00;11.30;;;3.80;;
54125;SDS011;40360;52.992;6.796;2023-04-30T09:31:31;8.95;;;2.95;;
54125;SDS011;40360;52.992;6.796;2023-04-30T09:34:01;7.28;;;3.13;;
54125;SDS011;40360;52.992;6.796;2023-04-30T09:36:27;9.73;;;3.80;;
54125;SDS011;40360;52.992;6.796;2023-04-30T09:38:53;8.65;;;3.35;;
54125;SDS011;40360;52.992;6.796;2023-04-30T09:43:54;12.75;;;3.55;;
54125;SDS011;40360;52.992;6.796;2023-04-30T09:46:21;9.48;;;3.38;;
54125;SDS011;40360;52.992;6.796;2023-04-30T09:48:59;12.13;;;3.75;;
54125;SDS011;40360;52.992;6.796;2023-04-30T09:51:29;13.00;;;4.07;;
54125;SDS011;40360;52.992;6.796;2023-04-30T09:53:56;13.27;;;3.92;;
54125;SDS011;40360;52.992;6.796;2023-04-30T09:56:25;8.02;;;3.35;;
54125;SDS011;40360;52.992;6.796;2023-04-30T09:58:51;6.68;;;3.08;;
54125;SDS011;40360;52.992;6.796;2023-04-30T10:01:24;8.18;;;3.00;;
54125;SDS011;40360;52.992;6.796;2023-04-30T10:03:51;7.57;;;3.47;;
54125;SDS011;40360;52.992;6.796;2023-04-30T10:06:17;9.13;;;3.55;;
54125;SDS011;40360;52.992;6.796;2023-04-30T10:08:50;8.13;;;3.40;;
54125;SDS011;40360;52.992;6.796;2023-04-30T10:11:20;10.75;;;3.90;;
54125;SDS011;40360;52.992;6.796;2023-04-30T10:18:58;8.63;;;3.38;;
54125;SDS011;40360;52.992;6.796;2023-04-30T10:21:27;9.60;;;3.25;;
54125;SDS011;40360;52.992;6.796;2023-04-30T10:23:56;10.77;;;3.08;;
54125;SDS011;40360;52.992;6.796;2023-04-30T10:26:22;9.23;;;4.03;;
54125;SDS011;40360;52.992;6.796;2023-04-30T10:28:48;11.18;;;3.38;;
54125;SDS011;40360;52.992;6.796;2023-04-30T10:31:15;8.85;;;4.05;;
54125;SDS011;40360;52.992;6.796;2023-04-30T10:36:23;8.95;;;3.53;;
54125;SDS011;40360;52.992;6.796;2023-04-30T10:39:12;7.05;;;3.70;;
54125;SDS011;40360;52.992;6.796;2023-04-30T10:41:43;10.25;;;3.33;;
54125;SDS011;40360;52.992;6.796;2023-04-30T10:44:11;9.55;;;4.40;;
54125;SDS011;40360;52.992;6.796;2023-04-30T10:46:36;10.38;;;4.68;;
54125;SDS011;40360;52.992;6.796;2023-04-30T10:49:03;10.05;;;4.05;;
54125;SDS011;40360;52.992;6.796;2023-04-30T10:51:48;9.32;;;3.63;;
54125;SDS011;40360;52.992;6.796;2023-04-30T10:54:26;10.95;;;4.32;;
54125;SDS011;40360;52.992;6.796;2023-04-30T10:56:53;7.13;;;3.05;;
54125;SDS011;40360;52.992;6.796;2023-04-30T10:59:34;11.45;;;3.95;;
54125;SDS011;40360;52.992;6.796;2023-04-30T11:02:01;6.68;;;3.33;;
54125;SDS011;40360;52.992;6.796;2023-04-30T11:04:27;5.50;;;3.65;;
54125;SDS011;40360;52.992;6.796;2023-04-30T11:09:40;11.67;;;4.80;;
54125;SDS011;40360;52.992;6.796;2023-04-30T11:12:14;7.50;;;3.65;;
54125;SDS011;40360;52.992;6.796;2023-04-30T11:14:44;9.30;;;4.05;;
54125;SDS011;40360;52.992;6.796;2023-04-30T11:17:11;8.13;;;3.80;;
54125;SDS011;40360;52.992;6.796;2023-04-30T11:19:47;8.95;;;3.47;;
54125;SDS011;40360;52.992;6.796;2023-04-30T11:22:14;6.55;;;3.50;;
54125;SDS011;40360;52.992;6.796;2023-04-30T11:24:53;7.32;;;3.45;;
54125;SDS011;40360;52.992;6.796;2023-04-30T11:27:28;6.95;;;3.00;;
54125;SDS011;40360;52.992;6.796;2023-04-30T11:29:56;5.82;;;3.13;;
54125;SDS011;40360;52.992;6.796;2023-04-30T11:32:24;6.47;;;2.83;;
54125;SDS011;40360;52.992;6.796;2023-04-30T11:34:51;2.47;;;1.70;;
54125;SDS011;40360;52.992;6.796;2023-04-30T11:37:31;5.55;;;2.10;;
54125;SDS011;40360;52.992;6.796;2023-04-30T11:40:05;6.07;;;2.35;;
54125;SDS011;40360;52.992;6.796;2023-04-30T11:42:33;5.85;;;2.95;;
54125;SDS011;40360;52.992;6.796;2023-04-30T11:45:16;4.95;;;3.03;;
54125;SDS011;40360;52.992;6.796;2023-04-30T11:47:51;4.73;;;3.17;;
54125;SDS011;40360;52.992;6.796;2023-04-30T11:50:19;4.45;;;3.08;;
54125;SDS011;40360;52.992;6.796;2023-04-30T11:52:53;6.20;;;3.30;;
54125;SDS011;40360;52.992;6.796;2023-04-30T11:55:21;4.75;;;3.42;;
54125;SDS011;40360;52.992;6.796;2023-04-30T11:57:48;8.52;;;3.90;;
54125;SDS011;40360;52.992;6.796;2023-04-30T12:00:16;5.35;;;3.22;;
54125;SDS011;40360;52.992;6.796;2023-04-30T12:02:43;8.20;;;3.15;;
54125;SDS011;40360;52.992;6.796;2023-04-30T12:05:14;4.35;;;2.85;;
54125;SDS011;40360;52.992;6.796;2023-04-30T12:07:53;7.47;;;2.80;;
54125;SDS011;40360;52.992;6.796;2023-04-30T12:10:21;5.13;;;3.03;;
54125;SDS011;40360;52.992;6.796;2023-04-30T12:12:47;4.95;;;3.00;;
54125;SDS011;40360;52.992;6.796;2023-04-30T12:15:14;5.78;;;2.72;;
54125;SDS011;40360;52.992;6.796;2023-04-30T12:17:42;6.20;;;3.08;;
54125;SDS011;40360;52.992;6.796;2023-04-30T12:20:09;3.72;;;2.20;;
54125;SDS011;40360;52.992;6.796;2023-04-30T12:22:35;4.70;;;2.72;;
54125;SDS011;40360;52.992;6.796;2023-04-30T12:25:05;5.07;;;2.72;;
54125;SDS011;40360;52.992;6.796;2023-04-30T12:27:46;6.13;;;3.05;;
54125;SDS011;40360;52.992;6.796;2023-04-30T12:30:18;5.40;;;2.42;;
54125;SDS011;40360;52.992;6.796;2023-04-30T12:32:47;4.53;;;2.45;;
54125;SDS011;40360;52.992;6.796;2023-04-30T12:35:15;3.65;;;2.22;;
54125;SDS011;40360;52.992;6.796;2023-04-30T12:37:42;3.80;;;2.67;;
54125;SDS011;40360;52.992;6.796;2023-04-30T12:40:09;9.77;;;2.72;;
54125;SDS011;40360;52.992;6.796;2023-04-30T12:42:36;4.03;;;2.72;;
54125;SDS011;40360;52.992;6.796;2023-04-30T12:45:02;5.72;;;3.05;;
54125;SDS011;40360;52.992;6.796;2023-04-30T12:47:28;5.20;;;3.22;;
54125;SDS011;40360;52.992;6.796;2023-04-30T12:49:54;4.00;;;2.70;;
54125;SDS011;40360;52.992;6.796;2023-04-30T12:52:22;4.63;;;2.60;;
54125;SDS011;40360;52.992;6.796;2023-04-30T12:54:50;4.13;;;2.85;;
54125;SDS011;40360;52.992;6.796;2023-04-30T12:57:17;7.55;;;2.83;;
54125;SDS011;40360;52.992;6.796;2023-04-30T13:02:17;4.03;;;2.70;;
54125;SDS011;40360;52.992;6.796;2023-04-30T13:04:43;6.82;;;3.08;;
54125;SDS011;40360;52.992;6.796;2023-04-30T13:07:09;7.78;;;3.50;;
54125;SDS011;40360;52.992;6.796;2023-04-30T13:09:35;6.60;;;3.20;;
54125;SDS011;40360;52.992;6.796;2023-04-30T13:12:02;6.57;;;3.05;;
54125;SDS011;40360;52.992;6.796;2023-04-30T13:14:29;7.28;;;3.80;;
54125;SDS011;40360;52.992;6.796;2023-04-30T13:16:56;4.57;;;3.10;;
54125;SDS011;40360;52.992;6.796;2023-04-30T13:19:21;5.68;;;3.38;;
54125;SDS011;40360;52.992;6.796;2023-04-30T13:21:47;4.57;;;2.42;;
54125;SDS011;40360;52.992;6.796;2023-04-30T13:24:12;5.03;;;2.85;;
54125;SDS011;40360;52.992;6.796;2023-04-30T13:26:38;6.82;;;2.80;;
54125;SDS011;40360;52.992;6.796;2023-04-30T13:29:04;5.93;;;3.20;;
54125;SDS011;40360;52.992;6.796;2023-04-30T13:31:30;5.15;;;3.00;;
54125;SDS011;40360;52.992;6.796;2023-04-30T13:33:56;5.80;;;3.20;;
54125;SDS011;40360;52.992;6.796;2023-04-30T13:36:21;6.00;;;3.53;;
54125;SDS011;40360;52.992;6.796;2023-04-30T13:38:47;6.80;;;3.65;;
54125;SDS011;40360;52.992;6.796;2023-04-30T13:41:13;8.80;;;3.83;;
54125;SDS011;40360;52.992;6.796;2023-04-30T13:43:38;6.30;;;2.97;;
54125;SDS011;40360;52.992;6.796;2023-04-30T13:46:06;3.60;;;2.75;;
54125;SDS011;40360;52.992;6.796;2023-04-30T13:48:32;5.55;;;2.80;;
54125;SDS011;40360;52.992;6.796;2023-04-30T13:50:59;3.45;;;2.67;;
54125;SDS011;40360;52.992;6.796;2023-04-30T13:53:24;3.80;;;1.73;;
54125;SDS011;40360;52.992;6.796;2023-04-30T13:55:51;6.35;;;2.33;;
54125;SDS011;40360;52.992;6.796;2023-04-30T13:58:17;4.15;;;2.53;;
54125;SDS011;40360;52.992;6.796;2023-04-30T14:00:42;3.58;;;2.45;;
54125;SDS011;40360;52.992;6.796;2023-04-30T14:03:08;6.38;;;3.10;;
54125;SDS011;40360;52.992;6.796;2023-04-30T14:05:35;5.45;;;2.67;;
54125;SDS011;40360;52.992;6.796;2023-04-30T14:08:01;7.43;;;3.40;;
54125;SDS011;40360;52.992;6.796;2023-04-30T14:10:28;6.95;;;2.92;;
54125;SDS011;40360;52.992;6.796;2023-04-30T14:12:54;4.85;;;2.47;;
54125;SDS011;40360;52.992;6.796;2023-04-30T14:15:20;4.30;;;2.20;;
54125;SDS011;40360;52.992;6.796;2023-04-30T14:17:46;5.80;;;2.88;;
54125;SDS011;40360;52.992;6.796;2023-04-30T14:20:12;7.05;;;3.55;;
54125;SDS011;40360;52.992;6.796;2023-04-30T14:22:38;5.75;;;2.47;;
54125;SDS011;40360;52.992;6.796;2023-04-30T14:25:04;7.03;;;2.40;;
54125;SDS011;40360;52.992;6.796;2023-04-30T14:27:30;6.72;;;2.03;;
54125;SDS011;40360;52.992;6.796;2023-04-30T14:29:56;6.57;;;2.85;;
54125;SDS011;40360;52.992;6.796;2023-04-30T14:32:23;4.65;;;2.45;;
54125;SDS011;40360;52.992;6.796;2023-04-30T14:34:50;3.00;;;1.77;;
54125;SDS011;40360;52.992;6.796;2023-04-30T14:37:16;3.90;;;1.85;;
54125;SDS011;40360;52.992;6.796;2023-04-30T14:39:42;2.80;;;1.77;;
54125;SDS011;40360;52.992;6.796;2023-04-30T14:42:08;5.10;;;2.20;;
54125;SDS011;40360;52.992;6.796;2023-04-30T14:44:34;6.20;;;2.50;;
54125;SDS011;40360;52.992;6.796;2023-04-30T14:47:01;3.38;;;2.10;;
54125;SDS011;40360;52.992;6.796;2023-04-30T14:49:27;7.53;;;2.75;;
54125;SDS011;40360;52.992;6.796;2023-04-30T14:51:53;7.25;;;2.45;;
54125;SDS011;40360;52.992;6.796;2023-04-30T14:54:18;8.38;;;3.13;;
54125;SDS011;40360;52.992;6.796;2023-04-30T14:56:44;3.72;;;2.30;;
54125;SDS011;40360;52.992;6.796;2023-04-30T14:59:10;5.45;;;2.53;;
54125;SDS011;40360;52.992;6.796;2023-04-30T15:01:36;5.38;;;2.00;;
54125;SDS011;40360;52.992;6.796;2023-04-30T15:04:02;3.60;;;1.95;;
54125;SDS011;40360;52.992;6.796;2023-04-30T15:06:29;4.28;;;2.00;;
54125;SDS011;40360;52.992;6.796;2023-04-30T15:08:55;5.00;;;2.63;;
54125;SDS011;40360;52.992;6.796;2023-04-30T15:11:21;4.35;;;2.38;;
54125;SDS011;40360;52.992;6.796;2023-04-30T15:13:48;7.43;;;2.75;;
54125;SDS011;40360;52.992;6.796;2023-04-30T15:16:14;3.85;;;2.28;;
54125;SDS011;40360;52.992;6.796;2023-04-30T15:18:43;5.57;;;2.42;;
54125;SDS011;40360;52.992;6.796;2023-04-30T15:21:08;4.97;;;2.35;;
54125;SDS011;40360;52.992;6.796;2023-04-30T15:23:34;3.92;;;2.00;;
54125;SDS011;40360;52.992;6.796;2023-04-30T15:26:00;3.75;;;2.05;;